Nags Head, North Carolina
Current Conditions -  °F | °C
As of 12:55 AM on Sunday 26 Oct 2014 (Local Time) from KFFA Reporting Station
Clear Clear  
Wind Chill: 59°   Ceiling: Unl
Heat Index: 59°   Visibility: 10mi
Dew Point: 49°   Wind: 7mph
Humidity: 71%   Direction: 240°WSW
Pressure: 29.78"   Gusts: NA
Location:  35.96°N, 75.62°W
Report Text: KFFA 260455Z AUTO 24006KT 10SM CLR 15/10 A2978 RMK AO2 T01500097
Loading
Personal Weather Stations






























Interactive Weather Map
Tropical Storm Tracking
New forecast layout! Learn more

10-Day Weather Forecast

Advertisements
Track Severe Weather on mobile